Time;durP1;ratioP1;P1;durP2;ratioP2;P2;SDS_P1;SDS_P2;PMS_P1;PMS_P2;Temp;Humidity;BMP_temperature;BMP_pressure;BME280_temperature;BME280_humidity;BME280_pressure;Samples;Min_cycle;Max_cycle;Signal;HPM_P1;HPM_P2
2023/02/09 00:01:20;;;;;;;14.80;6.83;;;;;;;-3.76;48.49;96967.47;5066847;28;20123;-78
2023/02/09 00:03:45;;;;;;;9.83;6.77;;;;;;;-3.70;48.42;96966.31;5069095;28;20031;-76
2023/02/09 00:06:13;;;;;;;13.03;7.17;;;;;;;-3.64;48.35;96965.13;5066057;28;20032;-76
2023/02/09 00:08:38;;;;;;;13.23;7.53;;;;;;;-3.70;48.39;96960.13;5066315;28;20021;-77
2023/02/09 00:11:17;;;;;;;11.77;8.07;;;;;;;-3.71;48.50;96955.84;5048780;28;20387;-76
2023/02/09 00:13:42;;;;;;;15.60;8.80;;;;;;;-3.67;48.28;96957.66;5066744;28;20039;-77
2023/02/09 00:16:08;;;;;;;12.97;7.37;;;;;;;-3.67;48.45;96957.66;5065241;28;20402;-76
2023/02/09 00:18:33;;;;;;;12.70;7.50;;;;;;;-3.67;48.62;96951.47;5067722;28;20501;-77
2023/02/09 00:21:07;;;;;;;14.77;7.70;;;;;;;-3.66;48.32;96948.50;5066960;28;20075;-77
2023/02/09 00:23:33;;;;;;;;;;;;;;;-3.65;48.52;96950.09;5066061;28;20105;-76
2023/02/09 00:26:00;;;;;;;14.37;7.40;;;;;;;-3.66;48.15;96945.81;5048912;28;19920;-77
2023/02/09 00:28:26;;;;;;;17.03;9.07;;;;;;;-3.68;48.36;96945.28;5065114;28;20098;-77
2023/02/09 00:30:51;;;;;;;18.93;9.00;;;;;;;-3.65;48.29;96951.97;5066241;28;20462;-76
2023/02/09 00:33:17;;;;;;;16.70;9.77;;;;;;;-3.64;48.58;96949.00;5066078;28;20027;-75
2023/02/09 00:35:42;;;;;;;15.60;8.33;;;;;;;-3.64;48.46;96948.19;5067098;28;20021;-76
2023/02/09 00:38:09;;;;;;;20.67;10.07;;;;;;;-3.65;48.30;96939.34;5064655;28;20072;-76
2023/02/09 00:40:35;;;;;;;17.67;9.30;;;;;;;-3.60;47.95;96949.19;5065079;28;20047;-77
2023/02/09 00:43:01;;;;;;;15.80;8.10;;;;;;;-3.64;48.36;96940.91;5066395;28;20491;-77
2023/02/09 00:45:26;;;;;;;16.20;7.60;;;;;;;-3.63;48.31;96936.34;5064667;28;20052;-77
2023/02/09 00:47:52;;;;;;;12.83;7.77;;;;;;;-3.75;48.57;96931.44;5065251;28;20032;-77
2023/02/09 00:50:18;;;;;;;15.63;8.40;;;;;;;-3.67;48.88;96924.56;5047934;28;20028;-77
2023/02/09 00:52:43;;;;;;;14.17;7.77;;;;;;;-3.74;48.89;96925.75;5065664;28;20039;-76
2023/02/09 00:55:08;;;;;;;12.27;8.47;;;;;;;-3.76;48.98;96927.97;5064583;28;20055;-77
2023/02/09 00:57:34;;;;;;;17.07;8.40;;;;;;;-3.82;49.30;96921.09;5066439;28;20112;-76
2023/02/09 01:00:00;;;;;;;14.67;8.07;;;;;;;-3.81;48.99;96929.94;5069195;28;20036;-77
2023/02/09 01:02:26;;;;;;;18.50;7.93;;;;;;;-3.81;48.89;96919.97;5066910;28;20028;-77
2023/02/09 01:04:51;;;;;;;13.73;7.70;;;;;;;-3.84;49.29;96925.97;5066611;28;20031;-77
2023/02/09 01:07:17;;;;;;;13.83;7.80;;;;;;;-3.83;49.25;96914.13;5047936;28;20135;-77
2023/02/09 01:09:42;;;;;;;15.93;8.33;;;;;;;-3.82;48.82;96921.09;5065919;28;20032;-77
2023/02/09 01:12:07;;;;;;;18.53;8.40;;;;;;;-3.86;49.08;96919.28;5065567;28;20399;-77
2023/02/09 01:14:33;;;;;;;14.77;8.37;;;;;;;-3.84;49.14;96917.91;5064997;28;20059;-78
2023/02/09 01:16:58;;;;;;;15.23;9.37;;;;;;;-3.87;49.10;96915.00;5065800;28;20032;-76
2023/02/09 01:19:25;;;;;;;14.53;8.93;;;;;;;-3.88;48.86;96908.03;5064486;28;20043;-78
2023/02/09 01:21:51;;;;;;;12.43;7.80;;;;;;;-3.90;49.10;96912.91;5064367;28;20056;-77
2023/02/09 01:24:16;;;;;;;11.70;8.37;;;;;;;-3.96;49.36;96897.94;5064052;28;20627;-76
2023/02/09 01:26:41;;;;;;;17.43;7.53;;;;;;;-3.96;49.04;96892.59;5066271;28;20477;-77
2023/02/09 01:29:09;;;;;;;15.83;8.73;;;;;;;-3.98;49.46;96900.94;5068791;28;20024;-77
2023/02/09 01:31:34;;;;;;;20.10;9.50;;;;;;;-3.96;49.46;96897.94;5050180;28;20024;-76
2023/02/09 01:34:02;;;;;;;16.73;9.53;;;;;;;-3.96;49.58;96895.25;5066101;28;20110;-77
2023/02/09 01:36:29;;;;;;;20.30;10.13;;;;;;;-3.97;49.56;96904.44;5064198;28;20067;-77
2023/02/09 01:38:55;;;;;;;18.03;9.93;;;;;;;-3.98;49.37;96908.22;5065662;28;20105;-75
2023/02/09 01:41:21;;;;;;;20.83;10.10;;;;;;;-3.96;49.29;96911.38;5063393;28;20024;-76
2023/02/09 01:44:00;;;;;;;21.70;10.93;;;;;;;-4.01;49.38;96894.28;5064073;28;20036;-77
2023/02/09 01:46:28;;;;;;;22.73;12.43;;;;;;;-4.03;49.27;96896.44;5065088;28;20472;-77
2023/02/09 01:49:05;;;;;;;26.13;12.70;;;;;;;-4.03;49.44;96895.66;5064655;28;20037;-78
2023/02/09 01:51:38;;;;;;;29.23;13.40;;;;;;;-4.04;49.35;96896.75;5065090;28;20040;-77
2023/02/09 01:54:10;;;;;;;28.67;15.07;;;;;;;-4.04;49.46;96894.88;5047178;28;20024;-78
2023/02/09 01:56:38;;;;;;;36.50;17.33;;;;;;;-4.04;49.65;96884.13;5065015;28;20064;-76
2023/02/09 01:59:04;;;;;;;39.10;18.40;;;;;;;-4.12;49.68;96895.56;5066967;28;20530;-77
2023/02/09 02:01:29;;;;;;;44.20;19.00;;;;;;;-4.23;49.53;96883.38;5065244;28;20032;-78
2023/02/09 02:03:55;;;;;;;39.30;19.33;;;;;;;-4.27;49.90;96890.44;5063962;28;20226;-76
2023/02/09 02:06:20;;;;;;;37.50;18.80;;;;;;;-4.25;50.04;96887.44;5064143;28;20394;-76
2023/02/09 02:08:52;;;;;;;36.73;17.63;;;;;;;-4.30;49.87;96888.31;5063905;28;20032;-77
2023/02/09 02:11:18;;;;;;;35.43;17.63;;;;;;;-4.37;49.70;96890.59;5063536;28;20032;-77
2023/02/09 02:13:43;;;;;;;33.60;16.97;;;;;;;-4.35;49.83;96888.44;5063836;28;20044;-76
2023/02/09 02:16:30;;;;;;;35.33;17.87;;;;;;;-4.37;49.54;96893.28;5063208;28;20059;-76
2023/02/09 02:19:04;;;;;;;35.40;17.87;;;;;;;-4.46;49.43;96895.03;5063870;28;20582;-77
2023/02/09 02:21:43;;;;;;;33.47;16.80;;;;;;;-4.49;49.65;96883.00;5064371;28;20177;-77
2023/02/09 02:24:36;;;;;;;32.43;15.67;;;;;;;-4.46;49.62;96889.69;5063292;28;20364;-77
2023/02/09 02:27:08;;;;;;;31.83;16.38;;;;;;;-4.50;49.29;96885.97;5065100;28;20064;-75
2023/02/09 02:29:45;;;;;;;27.70;14.17;;;;;;;-4.53;49.33;96884.66;5063389;28;20064;-76
2023/02/09 02:32:19;;;;;;;25.90;13.00;;;;;;;-4.58;49.23;96876.72;5064641;28;20028;-76
2023/02/09 02:35:03;;;;;;;25.53;13.10;;;;;;;-4.62;49.04;96875.69;5064610;28;20060;-77
2023/02/09 02:37:48;;;;;;;28.00;13.32;;;;;;;-4.64;49.15;96870.63;5046341;28;20508;-76
2023/02/09 02:40:21;;;;;;;28.20;12.80;;;;;;;-4.63;48.93;96874.91;5063170;28;20491;-77
2023/02/09 02:42:51;;;;;;;22.50;12.23;;;;;;;-4.63;48.91;96869.53;5062971;28;20029;-77
2023/02/09 02:45:32;;;;;;;22.83;12.83;;;;;;;-4.76;49.26;96864.88;5065010;28;20115;-77
2023/02/09 02:48:22;;;;;;;22.23;12.23;;;;;;;-4.78;49.35;96861.69;5063228;28;20028;-76
2023/02/09 02:51:16;;;;;;;26.43;11.93;;;;;;;-4.87;49.71;96860.78;5062642;28;20044;-79
2023/02/09 02:53:47;;;;;;;21.55;10.75;;;;;;;-4.99;49.75;96863.88;5063469;28;20080;-76
2023/02/09 02:56:20;;;;;;;24.23;12.70;;;;;;;-4.98;49.91;96862.81;5066047;28;20033;-77
2023/02/09 02:58:46;;;;;;;23.02;11.75;;;;;;;-5.05;50.19;96858.88;5063705;28;20028;-77
2023/02/09 03:01:15;;;;;;;21.23;12.53;;;;;;;-5.09;50.18;96864.03;5046548;28;20033;-78
2023/02/09 03:03:41;;;;;;;22.17;12.47;;;;;;;-5.07;50.40;96859.97;5063070;28;20477;-76
2023/02/09 03:06:08;;;;;;;22.27;13.07;;;;;;;-5.04;50.44;96863.97;5046282;28;20024;-76
2023/02/09 03:08:51;;;;;;;27.30;13.70;;;;;;;-5.02;50.61;96858.31;5062486;28;20050;-77
2023/02/09 03:11:18;;;;;;;20.90;11.33;;;;;;;-5.03;50.60;96859.41;5062817;28;20028;-76
2023/02/09 03:13:58;;;;;;;23.07;12.50;;;;;;;-4.99;50.32;96863.88;5049771;28;20453;-76
2023/02/09 03:16:32;;;;;;;20.87;11.53;;;;;;;-4.98;50.62;96862.00;5068136;28;20021;-76
2023/02/09 03:18:58;;;;;;;24.80;12.27;;;;;;;-4.94;50.20;96850.38;5068573;28;20034;-76
2023/02/09 03:21:39;;;;;;;23.60;11.93;;;;;;;-5.00;50.30;96856.91;5067705;28;20107;-77
2023/02/09 03:24:26;;;;;;;25.20;13.37;;;;;;;-5.03;50.42;96860.19;5066754;28;20033;-77
2023/02/09 03:27:23;;;;;;;21.33;11.13;;;;;;;-5.09;50.70;96851.41;5066697;28;20056;-76
2023/02/09 03:29:52;;;;;;;25.03;12.60;;;;;;;-5.15;50.67;96851.78;5066186;28;20067;-76
2023/02/09 03:32:20;;;;;;;25.27;13.00;;;;;;;-5.18;50.94;96850.47;5049828;28;20047;-78
2023/02/09 03:34:46;;;;;;;23.60;13.53;;;;;;;-5.13;50.91;96845.03;5066442;28;20060;-76
2023/02/09 03:37:11;;;;;;;24.23;12.30;;;;;;;-5.08;50.86;96844.16;5066619;28;20098;-77
2023/02/09 03:39:37;;;;;;;22.93;12.13;;;;;;;-5.08;50.54;96847.66;5067831;28;20104;-79
2023/02/09 03:42:02;;;;;;;23.57;12.47;;;;;;;-5.07;50.77;96840.41;5049533;28;20494;-77
2023/02/09 03:44:28;;;;;;;23.77;11.90;;;;;;;-5.03;50.48;96848.66;5065990;28;20028;-78
2023/02/09 03:46:56;;;;;;;22.30;11.33;;;;;;;-5.06;50.58;96844.66;5067273;28;20112;-77
2023/02/09 03:49:22;;;;;;;16.80;10.33;;;;;;;-5.12;50.33;96841.25;5066216;28;20047;-77
2023/02/09 03:51:47;;;;;;;20.37;10.03;;;;;;;-5.03;50.54;96846.00;5066712;28;20036;-78
2023/02/09 03:54:12;;;;;;;21.90;11.33;;;;;;;-5.01;50.27;96843.81;5053148;28;20067;-77
2023/02/09 03:56:38;;;;;;;19.47;10.40;;;;;;;-5.07;50.22;96849.25;5067034;28;20418;-77
2023/02/09 03:59:04;;;;;;;18.20;10.53;;;;;;;-5.07;50.38;96851.91;5066709;28;20020;-77
2023/02/09 04:01:32;;;;;;;22.13;12.70;;;;;;;-5.07;50.33;96840.41;5074042;28;20032;-76
2023/02/09 04:04:03;;;;;;;22.57;11.80;;;;;;;-5.05;50.39;96845.47;5052568;28;20040;-77
2023/02/09 04:06:30;;;;;;;21.00;12.73;;;;;;;-5.05;50.35;96848.16;5067218;28;20159;-76
2023/02/09 04:08:59;;;;;;;30.30;11.07;;;;;;;-5.02;50.44;96848.38;5066459;28;20017;-77
2023/02/09 04:11:25;;;;;;;20.27;11.27;;;;;;;-5.03;50.46;96846.00;5066673;28;20526;-76
2023/02/09 04:13:51;;;;;;;24.47;12.70;;;;;;;-5.10;50.23;96839.09;5067922;28;20151;-77
2023/02/09 04:16:19;;;;;;;21.07;12.17;;;;;;;-5.03;50.55;96846.00;5066193;28;20024;-78
2023/02/09 04:18:45;;;;;;;22.33;11.60;;;;;;;-5.09;50.41;96837.22;5067445;28;20032;-78
2023/02/09 04:21:11;;;;;;;20.40;10.73;;;;;;;-5.17;50.57;96844.00;5066824;28;20039;-75
2023/02/09 04:23:36;;;;;;;20.60;11.17;;;;;;;-5.25;50.88;96828.56;5065304;28;20029;-77
2023/02/09 04:26:01;;;;;;;26.00;11.53;;;;;;;-5.21;50.98;96839.53;5065455;28;20450;-76
2023/02/09 04:28:27;;;;;;;20.63;12.20;;;;;;;-5.21;50.64;96844.91;5067179;28;20032;-76
2023/02/09 04:30:53;;;;;;;24.83;12.63;;;;;;;-5.13;50.34;96850.41;5066058;28;20089;-77
2023/02/09 04:33:20;;;;;;;19.63;11.07;;;;;;;-5.20;50.60;96838.44;5065662;28;20082;-76
2023/02/09 04:35:47;;;;;;;22.60;11.90;;;;;;;-5.15;50.56;96841.06;5065538;28;20115;-77
2023/02/09 04:38:14;;;;;;;26.87;14.07;;;;;;;-5.20;50.34;96841.13;5065761;28;20035;-77
2023/02/09 04:40:40;;;;;;;21.63;12.10;;;;;;;-5.24;50.54;96840.09;5065416;28;20113;-77
2023/02/09 04:43:05;;;;;;;22.23;12.77;;;;;;;-5.24;50.52;96848.16;5065350;28;20445;-77
2023/02/09 04:45:31;;;;;;;21.50;10.87;;;;;;;-5.24;50.33;96848.16;5066851;28;20035;-78
2023/02/09 04:47:56;;;;;;;18.57;10.40;;;;;;;-5.24;50.63;96845.47;5065184;28;20029;-77
2023/02/09 04:50:22;;;;;;;19.03;11.07;;;;;;;-5.28;50.87;96852.47;5069843;28;20021;-77
2023/02/09 04:52:47;;;;;;;16.77;10.27;;;;;;;-5.30;50.66;96846.63;5067489;28;20056;-78
2023/02/09 04:55:12;;;;;;;19.30;11.03;;;;;;;-5.23;50.58;96839.00;5067220;28;20033;-77
2023/02/09 05:00:22;;;;;;;;;;;;;;;-5.27;50.77;96844.16;5067225;28;20040;-76
2023/02/09 05:02:47;;;;;;;19.47;11.10;;;;;;;-5.30;50.68;96846.63;5066826;28;19913;-76
2023/02/09 05:05:13;;;;;;;18.73;10.67;;;;;;;-5.31;50.69;96843.16;5066751;28;20024;-76
2023/02/09 05:07:38;;;;;;;25.50;12.37;;;;;;;-5.32;51.00;96841.56;5066581;28;20489;-77
2023/02/09 05:10:04;;;;;;;18.17;11.43;;;;;;;-5.33;51.04;96842.66;5065073;28;20070;-77
2023/02/09 05:12:29;;;;;;;24.60;13.10;;;;;;;-5.37;50.92;96836.25;5066391;28;20028;-77
2023/02/09 05:14:54;;;;;;;24.10;13.90;;;;;;;-5.32;51.03;96846.91;5066475;28;20373;-77
2023/02/09 05:17:20;;;;;;;23.13;14.00;;;;;;;-5.34;51.09;96855.22;5065843;28;20039;-75
2023/02/09 05:19:48;;;;;;;26.47;13.37;;;;;;;-5.39;50.85;96844.59;5066040;28;20035;-75
2023/02/09 05:22:14;;;;;;;30.60;14.47;;;;;;;-5.38;50.98;96846.19;5065897;28;20044;-77
2023/02/09 05:24:39;;;;;;;22.63;14.13;;;;;;;-5.37;50.51;96846.97;5065783;28;20553;-76
2023/02/09 05:27:05;;;;;;;22.10;13.77;;;;;;;-5.38;50.37;96851.53;5066009;28;20108;-76
2023/02/09 05:29:30;;;;;;;24.93;13.30;;;;;;;-5.39;50.68;96839.22;5064155;28;20409;-76
2023/02/09 05:31:55;;;;;;;24.70;14.23;;;;;;;-5.39;50.71;96847.28;5064880;28;20035;-77
2023/02/09 05:34:21;;;;;;;21.97;12.60;;;;;;;-5.37;50.42;96845.09;5064918;28;20025;-76
2023/02/09 05:36:46;;;;;;;24.00;14.67;;;;;;;-5.30;50.12;96852.78;5064122;28;20020;-77
2023/02/09 05:39:12;;;;;;;29.30;15.43;;;;;;;-5.29;49.82;96857.03;5064683;28;20090;-77
2023/02/09 05:44:21;;;;;;;;;;;;;;;-5.29;50.02;96857.03;5066034;28;20032;-76
2023/02/09 05:46:46;;;;;;;24.53;15.03;;;;;;;-5.28;49.91;96866.69;5065912;28;19916;-78
2023/02/09 05:49:12;;;;;;;27.60;16.87;;;;;;;-5.31;49.86;96861.91;5067213;28;20020;-78
2023/02/09 05:51:37;;;;;;;30.67;17.23;;;;;;;-5.31;49.78;96867.28;5066061;28;20029;-77
2023/02/09 05:54:03;;;;;;;31.47;18.03;;;;;;;-5.30;49.87;96858.13;5066022;28;20021;-76
2023/02/09 05:56:28;;;;;;;36.10;19.27;;;;;;;-5.25;49.71;96860.75;5065695;28;20103;-77
2023/02/09 05:58:54;;;;;;;34.53;19.27;;;;;;;-5.20;50.22;96865.25;5065714;28;20475;-76
2023/02/09 06:01:20;;;;;;;35.57;19.63;;;;;;;-5.17;50.19;96865.47;5065351;28;20086;-78
2023/02/09 06:03:45;;;;;;;32.50;17.27;;;;;;;-5.24;50.23;96858.88;5063989;28;20108;-77
2023/02/09 06:06:10;;;;;;;34.40;20.20;;;;;;;-5.14;49.91;96861.41;5064074;28;20081;-78
2023/02/09 06:08:36;;;;;;;36.90;21.30;;;;;;;-5.11;49.48;96868.88;5064965;28;20459;-76
2023/02/09 06:11:04;;;;;;;33.77;19.00;;;;;;;-5.10;49.59;96868.59;5064134;28;20032;-77
2023/02/09 06:13:30;;;;;;;33.57;19.50;;;;;;;-5.05;49.58;96862.34;5064828;28;20449;-75
2023/02/09 06:15:56;;;;;;;38.30;21.10;;;;;;;-5.01;49.26;96860.69;5063590;28;20029;-78
2023/02/09 06:18:21;;;;;;;38.63;21.87;;;;;;;-4.96;49.14;96857.94;5063859;28;20052;-77
2023/02/09 06:20:46;;;;;;;33.77;19.80;;;;;;;-4.92;49.42;96858.16;5063739;28;20029;-76
2023/02/09 06:23:12;;;;;;;43.23;21.60;;;;;;;-4.92;49.13;96844.75;5063409;28;20055;-77
2023/02/09 06:25:38;;;;;;;34.93;21.10;;;;;;;-4.84;49.20;96849.44;5063066;28;20047;-76
2023/02/09 06:28:04;;;;;;;31.40;19.63;;;;;;;-4.76;49.23;96848.78;5063694;28;20024;-77
2023/02/09 06:30:29;;;;;;;34.27;21.20;;;;;;;-4.76;49.55;96850.66;5064858;28;20040;-76
2023/02/09 06:32:55;;;;;;;33.97;20.63;;;;;;;-4.68;49.33;96850.81;5067159;28;20033;-78
2023/02/09 06:35:20;;;;;;;34.50;21.23;;;;;;;-4.62;49.36;96854.22;5068229;28;20024;-76
2023/02/09 06:37:46;;;;;;;36.77;21.53;;;;;;;-4.57;49.15;96856.81;5046841;28;20532;-77
2023/02/09 06:40:11;;;;;;;41.57;20.80;;;;;;;-4.52;49.14;96847.91;5063903;28;20024;-77
2023/02/09 06:42:42;;;;;;;32.57;20.70;;;;;;;-4.41;48.99;96847.44;5063434;28;20028;-77
2023/02/09 06:45:12;;;;;;;40.33;22.40;;;;;;;-4.31;48.85;96839.19;5065866;28;20036;-77
2023/02/09 06:47:42;;;;;;;35.13;20.17;;;;;;;-4.17;48.48;96841.13;5063692;28;20043;-76
2023/02/09 06:50:08;;;;;;;38.43;20.97;;;;;;;-4.12;48.69;96838.34;5063961;28;20119;-77
2023/02/09 06:52:34;;;;;;;30.23;17.23;;;;;;;-4.04;48.14;96827.69;5064430;28;20032;-76
2023/02/09 06:54:59;;;;;;;37.23;18.43;;;;;;;-4.07;48.08;96822.09;5063338;28;20035;-76
2023/02/09 06:57:25;;;;;;;35.50;17.53;;;;;;;-3.96;47.80;96833.47;5064881;28;20020;-76
2023/02/09 06:59:50;;;;;;;42.90;20.17;;;;;;;-3.84;47.24;96831.91;5063201;28;20567;-78
2023/02/09 07:02:15;;;;;;;56.60;27.93;;;;;;;-3.80;47.05;96816.75;5064606;28;20021;-76
2023/02/09 07:04:41;;;;;;;67.50;32.27;;;;;;;-3.77;46.69;96818.06;5062788;28;20794;-78
2023/02/09 07:07:06;;;;;;;75.13;34.20;;;;;;;-3.53;46.85;96825.91;5064571;28;20037;-76
2023/02/09 07:09:31;;;;;;;67.00;29.40;;;;;;;-3.43;46.72;96832.97;5062897;28;20029;-78
2023/02/09 07:11:57;;;;;;;43.47;23.53;;;;;;;-3.29;45.95;96829.16;5064133;28;20131;-77
2023/02/09 07:14:22;;;;;;;31.53;17.47;;;;;;;-3.13;45.52;96821.56;5062890;28;20523;-78
2023/02/09 07:16:48;;;;;;;22.77;13.87;;;;;;;-3.01;45.02;96829.91;5064160;28;20024;-77
2023/02/09 07:19:13;;;;;;;25.80;13.67;;;;;;;-2.99;44.96;96819.63;5064261;28;20097;-77
2023/02/09 07:21:39;;;;;;;31.20;15.20;;;;;;;-2.88;44.29;96811.31;5062425;28;20059;-78
2023/02/09 07:24:04;;;;;;;28.00;15.43;;;;;;;-2.70;43.96;96821.13;5046291;28;20165;-78
2023/02/09 07:26:29;;;;;;;26.40;15.23;;;;;;;-2.60;43.95;96826.25;5064061;28;20028;-78
2023/02/09 07:28:55;;;;;;;24.43;14.57;;;;;;;-2.48;43.38;96826.50;5064887;28;20155;-77
2023/02/09 07:31:20;;;;;;;25.90;13.83;;;;;;;-2.30;43.27;96826.59;5064179;28;20379;-76
2023/02/09 07:33:46;;;;;;;23.92;13.75;;;;;;;-2.13;42.84;96822.09;5046005;28;20028;-77
2023/02/09 07:36:13;;;;;;;18.75;12.25;;;;;;;-1.97;42.01;96821.72;5046190;28;20056;-76
2023/02/09 07:38:39;;;;;;;24.20;12.18;;;;;;;-1.80;41.91;96831.78;5062070;28;20035;-77
2023/02/09 07:41:06;;;;;;;21.20;12.88;;;;;;;-1.68;41.56;96823.91;5046206;28;20025;-78
2023/02/09 07:43:32;;;;;;;25.10;12.55;;;;;;;-1.55;40.75;96825.69;5067572;28;20030;-77
2023/02/09 07:46:05;;;;;;;28.55;13.20;;;;;;;-1.46;41.00;96823.03;5064910;28;20028;-79
2023/02/09 07:48:32;;;;;;;24.55;14.45;;;;;;;-1.27;40.72;96817.34;5063631;28;20081;-80
2023/02/09 07:50:58;;;;;;;24.15;13.60;;;;;;;-1.12;39.36;96825.00;5063914;28;20534;-77
2023/02/09 07:53:24;;;;;;;21.08;12.20;;;;;;;-1.00;39.34;96808.19;5065071;28;20063;-78
2023/02/09 07:55:49;;;;;;;25.05;13.48;;;;;;;-0.86;39.72;96808.81;5064604;28;20025;-80
2023/02/09 07:58:17;;;;;;;19.63;11.48;;;;;;;-0.74;38.95;96809.00;5065874;28;20052;-79
2023/02/09 08:00:44;;;;;;;22.00;10.55;;;;;;;-0.57;38.45;96808.97;5066920;28;20051;-80
2023/02/09 08:03:10;;;;;;;18.92;10.73;;;;;;;-0.35;38.47;96805.25;5068123;28;20101;-77
2023/02/09 08:05:41;;;;;;;20.77;11.75;;;;;;;-0.13;37.85;96806.19;5066577;28;20475;-78
2023/02/09 08:08:06;;;;;;;23.55;11.95;;;;;;;0.11;37.77;96805.63;5066950;28;20021;-77
2023/02/09 08:10:32;;;;;;;19.63;10.35;;;;;;;0.17;37.36;96807.03;5066588;28;20098;-78
2023/02/09 08:12:58;;;;;;;18.15;10.40;;;;;;;0.37;37.07;96809.03;5066988;28;20120;-80
2023/02/09 08:15:28;;;;;;;17.50;10.40;;;;;;;0.55;36.03;96814.34;5066727;28;20103;-78
2023/02/09 08:17:56;;;;;;;17.80;9.93;;;;;;;0.82;36.00;96813.09;5066249;28;20028;-78
2023/02/09 08:20:25;;;;;;;14.40;8.63;;;;;;;1.12;35.59;96816.56;5066842;28;20491;-81
2023/02/09 08:22:52;;;;;;;17.42;9.13;;;;;;;1.47;35.31;96814.34;5067569;28;20052;-80
2023/02/09 08:25:20;;;;;;;16.77;10.57;;;;;;;1.90;34.59;96813.97;5065876;28;20032;-83
2023/02/09 08:27:45;;;;;;;18.35;9.93;;;;;;;2.16;33.49;96815.59;5065910;28;20322;-80
2023/02/09 08:30:12;;;;;;;16.75;9.07;;;;;;;2.42;33.41;96809.88;5066158;28;20104;-79
2023/02/09 08:32:38;;;;;;;16.15;8.57;;;;;;;2.68;32.18;96810.31;5066490;28;20040;-77
2023/02/09 08:35:04;;;;;;;15.30;7.90;;;;;;;2.96;31.60;96807.69;5068492;28;20033;-78
2023/02/09 08:37:30;;;;;;;16.25;9.05;;;;;;;3.29;31.76;96804.78;5073358;28;20124;-82
2023/02/09 08:39:55;;;;;;;18.63;10.57;;;;;;;3.70;31.09;96795.44;5068707;28;20024;-84
2023/02/09 08:42:20;;;;;;;17.55;9.32;;;;;;;4.12;31.22;96800.44;5060498;28;20089;-79
2023/02/09 08:44:46;;;;;;;20.67;9.10;;;;;;;4.61;30.16;96804.78;5067676;28;20041;-79
2023/02/09 08:47:11;;;;;;;15.32;8.65;;;;;;;4.94;29.71;96799.72;5066772;28;20450;-79
2023/02/09 08:49:37;;;;;;;18.00;8.02;;;;;;;5.41;28.50;96806.97;5067537;28;20032;-79
2023/02/09 08:52:02;;;;;;;16.05;8.00;;;;;;;5.95;28.62;96806.09;5067267;28;20050;-78
2023/02/09 08:54:28;;;;;;;10.88;6.47;;;;;;;6.24;26.54;96804.69;5052032;28;20024;-79
2023/02/09 08:56:53;;;;;;;13.32;6.88;;;;;;;6.34;26.45;96809.56;5076957;28;20035;-77
2023/02/09 08:59:18;;;;;;;13.07;6.97;;;;;;;6.96;26.78;96806.66;5071486;28;20025;-80
2023/02/09 09:01:44;;;;;;;12.35;6.90;;;;;;;7.45;25.34;96817.53;5067256;28;20027;-82
2023/02/09 09:04:09;;;;;;;10.15;6.47;;;;;;;7.72;24.84;96820.19;5066141;28;20035;-84
2023/02/09 09:06:35;;;;;;;9.82;5.47;;;;;;;8.02;24.21;96811.91;5067513;28;20032;-80
2023/02/09 09:09:01;;;;;;;8.55;5.25;;;;;;;8.39;23.53;96816.66;5067368;28;20062;-80
2023/02/09 09:11:26;;;;;;;9.07;5.50;;;;;;;9.16;23.84;96818.44;5065427;28;20024;-77
2023/02/09 09:13:52;;;;;;;17.23;5.90;;;;;;;9.72;23.29;96819.94;5066054;28;20831;-77
2023/02/09 09:16:20;;;;;;;10.43;6.00;;;;;;;10.21;21.55;96820.53;5066569;28;20810;-78
2023/02/09 09:18:45;;;;;;;8.93;5.60;;;;;;;10.72;21.60;96813.94;5047865;28;20521;-76
2023/02/09 09:21:18;;;;;;;8.80;5.80;;;;;;;11.84;20.31;96816.16;5065146;28;20033;-76
2023/02/09 09:23:45;;;;;;;8.73;5.60;;;;;;;12.98;19.44;96821.00;5048108;28;20506;-79
2023/02/09 09:26:11;;;;;;;9.88;5.95;;;;;;;13.77;17.46;96819.06;5064108;28;20024;-78
2023/02/09 09:28:37;;;;;;;11.27;6.35;;;;;;;15.20;16.27;96819.06;5064621;28;20028;-76
2023/02/09 09:31:11;;;;;;;9.85;6.13;;;;;;;16.91;15.81;96812.84;5064751;28;20064;-77
2023/02/09 09:33:37;;;;;;;9.95;6.68;;;;;;;18.58;14.10;96815.91;5065869;28;20024;-77
2023/02/09 09:36:04;;;;;;;12.93;7.10;;;;;;;19.53;12.87;96813.25;5065616;28;20029;-85
2023/02/09 09:38:29;;;;;;;11.85;7.55;;;;;;;20.68;12.62;96811.47;5084078;28;20024;-86
2023/02/09 09:40:55;;;;;;;11.27;7.30;;;;;;;21.22;11.99;96809.34;5071542;28;20029;-86
2023/02/09 09:43:37;;;;;;;8.02;6.05;;;;;;;22.01;11.20;96826.38;5049769;28;20509;-85
2023/02/09 09:46:04;;;;;;;9.15;6.03;;;;;;;22.62;11.45;96818.84;5065548;28;20035;-80
2023/02/09 09:48:40;;;;;;;10.02;5.45;;;;;;;23.54;10.16;96812.81;5047517;28;20188;-78
2023/02/09 09:51:11;;;;;;;11.68;6.25;;;;;;;24.17;10.11;96813.59;5047951;28;20086;-78
2023/02/09 09:53:38;;;;;;;6.78;5.63;;;;;;;24.91;9.81;96810.81;5063905;28;20028;-79
2023/02/09 09:56:06;;;;;;;9.30;5.78;;;;;;;26.02;9.29;96812.84;5065554;28;20078;-79
2023/02/09 09:58:32;;;;;;;13.10;6.60;;;;;;;26.68;8.56;96821.25;5064148;28;20198;-79
2023/02/09 10:00:58;;;;;;;9.07;6.75;;;;;;;27.65;8.03;96812.19;5064009;28;20495;-76
2023/02/09 10:03:24;;;;;;;9.68;6.15;;;;;;;28.24;8.07;96823.47;5065267;28;20017;-78
2023/02/09 10:05:54;;;;;;;9.85;6.43;;;;;;;28.33;7.49;96816.88;5065013;28;20063;-81
2023/02/09 10:08:26;;;;;;;9.13;6.18;;;;;;;28.59;7.50;96805.31;5064191;28;20082;-83
2023/02/09 10:11:00;;;;;;;10.75;6.53;;;;;;;29.41;7.01;96807.09;5064635;28;20037;-80
2023/02/09 10:13:32;;;;;;;11.55;6.85;;;;;;;29.51;6.71;96797.78;5065544;28;20082;-78
2023/02/09 10:15:57;;;;;;;5.78;4.82;;;;;;;29.83;6.51;96797.47;5063992;28;20025;-77
2023/02/09 10:18:24;;;;;;;9.00;6.13;;;;;;;29.93;6.71;96803.59;5063855;28;20102;-80
2023/02/09 10:20:50;;;;;;;5.47;4.63;;;;;;;29.47;6.05;96800.09;5062751;28;20101;-78
2023/02/09 10:23:19;;;;;;;5.47;4.20;;;;;;;28.14;6.29;96791.06;5063250;28;20086;-79
2023/02/09 10:25:54;;;;;;;6.50;4.18;;;;;;;28.04;6.73;96784.09;5064702;28;20036;-78
2023/02/09 10:28:25;;;;;;;6.13;4.60;;;;;;;27.83;6.94;96783.53;5063208;28;20020;-79
2023/02/09 10:30:55;;;;;;;5.85;4.57;;;;;;;28.03;6.96;96769.19;5064624;28;20066;-79
2023/02/09 10:33:22;;;;;;;5.90;3.90;;;;;;;28.34;6.85;96780.88;5063567;28;20052;-80
2023/02/09 10:35:53;;;;;;;7.10;4.53;;;;;;;28.42;6.75;96777.00;5065491;28;20025;-79
2023/02/09 10:38:21;;;;;;;8.20;4.63;;;;;;;29.21;6.49;96786.28;5067238;28;20032;-79
2023/02/09 10:40:47;;;;;;;6.93;4.45;;;;;;;29.19;6.23;96776.75;5063380;28;20031;-77
2023/02/09 10:43:39;;;;;;;7.05;4.57;;;;;;;29.93;5.81;96772.41;5064611;28;20386;-79
2023/02/09 10:46:16;;;;;;;6.55;4.68;;;;;;;30.81;6.09;96776.00;5065126;28;20094;-78
2023/02/09 10:48:43;;;;;;;9.65;5.30;;;;;;;30.90;5.72;96778.50;5063250;28;20042;-77
2023/02/09 10:51:38;;;;;;;7.03;5.20;;;;;;;29.55;5.75;96775.66;5064738;28;20021;-78
2023/02/09 10:54:06;;;;;;;6.20;5.28;;;;;;;29.24;6.40;96771.06;5081822;28;20621;-77
2023/02/09 10:56:43;;;;;;;6.13;4.97;;;;;;;29.33;6.58;96767.19;5065777;28;20032;-78
2023/02/09 10:59:15;;;;;;;7.50;5.00;;;;;;;29.36;5.92;96766.94;5048902;28;20056;-79
2023/02/09 11:01:42;;;;;;;5.53;4.50;;;;;;;29.13;6.18;96754.09;5081586;28;20117;-79
2023/02/09 11:04:19;;;;;;;10.68;4.72;;;;;;;29.73;6.22;96753.69;5081830;28;20123;-77
2023/02/09 11:06:51;;;;;;;6.45;4.60;;;;;;;28.74;6.27;96757.75;5064519;28;20115;-78
2023/02/09 11:09:25;;;;;;;8.00;5.03;;;;;;;28.82;6.73;96758.75;5065641;28;20067;-77
2023/02/09 11:11:51;;;;;;;7.88;5.38;;;;;;;29.53;6.80;96752.72;5081618;28;20214;-77
2023/02/09 11:14:18;;;;;;;8.20;5.30;;;;;;;30.54;6.32;96752.19;5064809;28;20032;-79
2023/02/09 11:16:54;;;;;;;7.50;5.35;;;;;;;30.73;5.67;96740.97;5082115;28;20036;-79
2023/02/09 11:19:24;;;;;;;7.22;5.43;;;;;;;31.35;5.69;96735.47;5065194;28;20453;-79
2023/02/09 11:22:08;;;;;;;11.77;6.03;;;;;;;31.45;5.34;96736.66;5082745;28;20097;-79
2023/02/09 11:25:01;;;;;;;7.25;5.30;;;;;;;31.91;5.33;96734.06;5089808;28;20040;-78
2023/02/09 11:27:35;;;;;;;4.85;4.15;;;;;;;31.11;5.24;96733.38;5082466;28;20032;-78
2023/02/09 11:30:10;;;;;;;5.03;4.00;;;;;;;31.26;5.11;96732.25;5076946;28;20040;-78
2023/02/09 11:32:46;;;;;;;5.30;4.28;;;;;;;30.52;5.31;96732.09;5065009;28;20028;-78
2023/02/09 11:35:17;;;;;;;7.10;4.18;;;;;;;30.62;5.71;96724.00;5072782;28;20055;-77